Startpagina
METAR-TAF:

METAR-TAF

Vliegvelden :

Albenga, Italië

breedte: 44-03N, lengte: 008-07E, hoogte: 45 m

Actueel weer

Dit bericht is 11 uur en het 42 minuten geleden gemaakt, om 17:50 UTC
Wind 6 kt uit het oostnoordoosten, variërend tussen het noordnoordoosten en het oosten
Temperatuur 22°C
Vochtigheid 57%
Druk 1003 hPa
Zicht 10 km of meer
geen wolken onder 1500 m en geen cumulonimbus

METAR: LIMG 051750Z 07006KT 020V090 CAVOK 22/13 Q1003

Tijdstip: 07:32 (05:32 UTC)


TAF: ontbreekt

Waarnemingen en weersverwachtingen van meer dan 4000 vliegvelden (METAR en TAF).

De beschikbare stations zijn de gele en rode punten op de kaart.

Ga met uw muis naar het station om de naam te zien.

Klik dan om waarnemingen en weersverwachtingen te zien.

kaart wijzigen: klik op de groene knoppen met een zwart kruis om in te zoomen, op de groene knop met een streepje om uit te zoomen of op de groene pijlen voor aangrenzende kaarten.


METAR-TAF: